Time;durP1;ratioP1;P1;durP2;ratioP2;P2;SDS_P1;SDS_P2;PMS_P1;PMS_P2;Temp;Humidity;BMP_temperature;BMP_pressure;BME280_temperature;BME280_humidity;BME280_pressure;Samples;Min_cycle;Max_cycle;Signal;HPM_P1;HPM_P2
2020/12/02 00:01:45;;;;;;;;;;;21.80;56.80;;;;;;5051987;28;1252;-68
2020/12/02 00:04:11;;;;;;;;;;;21.70;56.80;;;;;;5067725;28;1926;-68
2020/12/02 00:06:37;;;;;;;;;;;21.70;56.80;;;;;;5067601;28;1066;-69
2020/12/02 00:09:05;;;;;;;;;;;21.70;56.80;;;;;;5050116;28;1288;-69
2020/12/02 00:11:30;;;;;;;;;;;21.80;56.90;;;;;;5067571;28;1307;-69
2020/12/02 00:13:57;;;;;;;;;;;21.70;56.90;;;;;;5067925;28;1102;-68
2020/12/02 00:16:23;;;;;;;;;;;21.70;57.20;;;;;;5057461;28;1217;-69
2020/12/02 00:18:52;;;;;;;;;;;21.70;56.90;;;;;;5064457;28;997;-68
2020/12/02 00:21:18;;;;;;;;;;;21.70;57.00;;;;;;5054059;28;1276;-68
2020/12/02 00:23:44;;;;;;;;;;;21.70;57.00;;;;;;5051842;28;1973;-68
2020/12/02 00:26:10;;;;;;;;;;;21.70;57.00;;;;;;5050826;28;1107;-69
2020/12/02 00:28:35;;;;;;;;;;;21.70;57.00;;;;;;5052193;28;1060;-69
2020/12/02 00:31:01;;;;;;;;;;;21.60;57.00;;;;;;5052286;28;1373;-69
2020/12/02 00:33:26;;;;;;;;;;;21.70;57.10;;;;;;5067284;28;909;-69
2020/12/02 00:35:52;;;;;;;;;;;21.70;57.10;;;;;;5052529;28;1110;-68
2020/12/02 00:38:17;;;;;;;;;;;21.60;57.10;;;;;;5051300;28;1376;-68
2020/12/02 00:40:46;;;;;;;;;;;21.60;57.10;;;;;;5050920;28;1308;-69
2020/12/02 00:43:16;;;;;;;;;;;21.60;57.10;;;;;;5051039;28;1945;-69
2020/12/02 00:45:41;;;;;;;;;;;21.60;57.20;;;;;;5050628;28;1060;-69
2020/12/02 00:48:09;;;;;;;;;;;21.60;57.20;;;;;;5050005;28;1398;-69
2020/12/02 00:50:35;;;;;;;;;;;21.60;57.20;;;;;;5050929;28;1295;-68
2020/12/02 00:53:21;;;;;;;;;;;21.60;57.20;;;;;;5052334;28;1308;-69
2020/12/02 00:55:46;;;;;;;;;;;21.60;57.20;;;;;;5052216;28;1119;-69
2020/12/02 00:58:12;;;;;;;;;;;21.60;57.20;;;;;;5067550;28;1091;-69
2020/12/02 01:00:39;;;;;;;;;;;21.60;57.30;;;;;;5052055;28;1341;-69
2020/12/02 01:03:13;;;;;;;;;;;21.60;57.30;;;;;;5070762;28;1972;-69
2020/12/02 01:05:39;;;;;;;;;;;21.60;57.30;;;;;;5055937;28;1084;-68
2020/12/02 01:08:22;;;;;;;;;;;21.50;57.30;;;;;;5054286;28;1152;-69
2020/12/02 01:10:51;;;;;;;;;;;21.50;57.30;;;;;;5055557;28;1284;-69
2020/12/02 01:13:16;;;;;;;;;;;21.50;57.30;;;;;;5054732;28;1234;-69
2020/12/02 01:15:42;;;;;;;;;;;21.50;57.30;;;;;;5066305;28;1079;-69
2020/12/02 01:18:14;;;;;;;;;;;21.50;57.30;;;;;;5050159;28;1095;-69
2020/12/02 01:20:40;;;;;;;;;;;21.50;57.40;;;;;;5060165;28;1307;-69
2020/12/02 01:23:05;;;;;;;;;;;21.50;57.40;;;;;;5055778;28;1898;-69
2020/12/02 01:25:31;;;;;;;;;;;21.50;57.40;;;;;;5053657;28;1413;-69
2020/12/02 01:28:06;;;;;;;;;;;21.50;57.40;;;;;;5070736;28;1067;-69
2020/12/02 01:30:32;;;;;;;;;;;21.50;57.40;;;;;;5054888;28;1294;-69
2020/12/02 01:32:57;;;;;;;;;;;21.50;57.50;;;;;;5055533;28;1052;-69
2020/12/02 01:35:23;;;;;;;;;;;21.50;57.50;;;;;;5054968;28;1127;-69
2020/12/02 01:37:55;;;;;;;;;;;21.40;57.50;;;;;;5053027;28;1063;-69
2020/12/02 01:40:22;;;;;;;;;;;21.40;57.50;;;;;;5053863;28;1375;-69
2020/12/02 01:43:00;;;;;;;;;;;21.40;57.50;;;;;;5055374;28;1906;-68
2020/12/02 01:45:27;;;;;;;;;;;21.40;57.50;;;;;;5055005;28;1048;-69
2020/12/02 01:48:11;;;;;;;;;;;21.40;57.50;;;;;;5069690;28;1106;-69
2020/12/02 01:50:42;;;;;;;;;;;21.40;57.50;;;;;;5054787;28;1359;-69
2020/12/02 01:53:21;;;;;;;;;;;21.40;57.50;;;;;;5051334;28;1216;-69
2020/12/02 01:56:03;;;;;;;;;;;21.40;57.50;;;;;;5051509;28;1056;-69
2020/12/02 01:58:48;;;;;;;;;;;21.40;57.60;;;;;;5072981;28;1142;-69
2020/12/02 02:01:15;;;;;;;;;;;21.40;57.60;;;;;;5056343;28;1363;-68
2020/12/02 02:03:41;;;;;;;;;;;21.40;57.60;;;;;;5055492;28;1906;-69
2020/12/02 02:06:14;;;;;;;;;;;21.40;57.60;;;;;;5073136;28;1163;-69
2020/12/02 02:08:41;;;;;;;;;;;21.40;57.60;;;;;;5072267;28;1095;-68
2020/12/02 02:11:07;;;;;;;;;;;21.40;57.70;;;;;;5056652;28;1225;-69
2020/12/02 02:13:38;;;;;;;;;;;21.40;57.70;;;;;;5055885;28;1182;-69
2020/12/02 02:16:11;;;;;;;;;;;21.30;57.60;;;;;;5060375;28;1079;-69
2020/12/02 02:18:37;;;;;;;;;;;21.30;57.70;;;;;;5053055;28;1182;-69
2020/12/02 02:21:07;;;;;;;;;;;21.30;57.60;;;;;;5052962;28;1228;-69
2020/12/02 02:23:32;;;;;;;;;;;21.40;57.70;;;;;;5052629;28;1906;-68
2020/12/02 02:25:57;;;;;;;;;;;21.40;57.70;;;;;;5052921;28;1242;-69
2020/12/02 02:28:23;;;;;;;;;;;21.40;57.60;;;;;;5054032;28;1107;-68
2020/12/02 02:30:49;;;;;;;;;;;21.40;57.60;;;;;;5051893;28;1481;-68
2020/12/02 02:33:15;;;;;;;;;;;21.40;57.50;;;;;;5051230;28;1314;-68
2020/12/02 02:35:40;;;;;;;;;;;21.40;58.10;;;;;;5044189;28;1261;-68
2020/12/02 02:38:05;;;;;;;;;;;21.40;57.50;;;;;;5053391;28;1288;-68
2020/12/02 02:40:31;;;;;;;;;;;21.40;57.40;;;;;;5041754;28;1382;-68
2020/12/02 02:42:56;;;;;;;;;;;21.40;57.40;;;;;;5059095;28;1890;-69
2020/12/02 02:45:22;;;;;;;;;;;21.40;57.40;;;;;;5029210;28;1882;-68
2020/12/02 02:47:47;;;;;;;;;;;21.40;57.40;;;;;;5055156;28;1320;-69
2020/12/02 02:50:13;;;;;;;;;;;21.40;57.40;;;;;;5052857;28;1401;-69
2020/12/02 02:52:39;;;;;;;;;;;21.40;57.40;;;;;;5035502;28;1308;-68
2020/12/02 02:55:05;;;;;;;;;;;21.40;57.40;;;;;;5053337;28;1293;-69
2020/12/02 02:57:30;;;;;;;;;;;21.40;57.40;;;;;;5036161;28;1368;-68
2020/12/02 02:59:56;;;;;;;;;;;21.40;57.40;;;;;;5055126;28;1332;-68
2020/12/02 03:02:21;;;;;;;;;;;21.40;57.50;;;;;;5057751;28;1967;-68
2020/12/02 03:04:47;;;;;;;;;;;21.40;57.50;;;;;;5052222;28;1288;-68
2020/12/02 03:07:14;;;;;;;;;;;21.40;57.50;;;;;;5052392;28;1320;-68
2020/12/02 03:09:40;;;;;;;;;;;21.40;57.50;;;;;;5051617;28;1355;-69
2020/12/02 03:12:05;;;;;;;;;;;21.40;57.50;;;;;;5052446;28;1304;-69
2020/12/02 03:14:31;;;;;;;;;;;21.40;57.60;;;;;;5058505;28;1386;-69
2020/12/02 03:16:56;;;;;;;;;;;21.30;57.50;;;;;;5057915;28;1351;-69
2020/12/02 03:19:23;;;;;;;;;;;21.30;57.50;;;;;;5054567;28;1292;-69
2020/12/02 03:21:48;;;;;;;;;;;21.30;57.60;;;;;;5053982;28;1367;-68
2020/12/02 03:24:14;;;;;;;;;;;21.30;57.60;;;;;;5041509;28;1898;-68
2020/12/02 03:26:39;;;;;;;;;;;21.30;57.60;;;;;;5057986;28;1359;-68
2020/12/02 03:29:05;;;;;;;;;;;21.30;57.60;;;;;;5050288;28;1268;-69
2020/12/02 03:31:31;;;;;;;;;;;21.30;57.60;;;;;;5052721;28;1393;-68
2020/12/02 03:33:56;;;;;;;;;;;21.30;57.70;;;;;;5058840;28;1429;-69
2020/12/02 03:36:22;;;;;;;;;;;21.30;57.70;;;;;;5035372;28;1573;-69
2020/12/02 03:38:47;;;;;;;;;;;21.30;57.70;;;;;;5058759;28;1355;-69
2020/12/02 03:41:13;;;;;;;;;;;21.30;57.70;;;;;;5064570;28;1271;-69
2020/12/02 03:43:38;;;;;;;;;;;21.30;57.70;;;;;;5051463;28;1898;-68
2020/12/02 03:46:04;;;;;;;;;;;21.30;57.70;;;;;;5051976;28;1082;-68
2020/12/02 03:48:30;;;;;;;;;;;21.30;57.80;;;;;;5068562;28;1170;-68
2020/12/02 03:50:55;;;;;;;;;;;21.20;57.80;;;;;;5068857;28;1244;-68
2020/12/02 03:53:20;;;;;;;;;;;21.20;57.80;;;;;;5053752;28;1147;-69
2020/12/02 03:55:46;;;;;;;;;;;21.20;57.80;;;;;;5053423;28;1139;-69
2020/12/02 03:58:11;;;;;;;;;;;21.20;57.80;;;;;;5052004;28;1341;-68
2020/12/02 04:00:37;;;;;;;;;;;21.20;57.90;;;;;;5051859;28;1276;-68
2020/12/02 04:03:02;;;;;;;;;;;21.20;57.90;;;;;;5052872;28;1969;-69
2020/12/02 04:05:28;;;;;;;;;;;21.20;57.90;;;;;;5052036;28;1076;-69
2020/12/02 04:07:53;;;;;;;;;;;21.20;57.90;;;;;;5049029;28;1218;-69
2020/12/02 04:10:19;;;;;;;;;;;21.20;57.90;;;;;;5058353;28;1451;-69
2020/12/02 04:12:45;;;;;;;;;;;21.20;57.80;;;;;;5055443;28;1143;-69
2020/12/02 04:15:11;;;;;;;;;;;21.20;57.80;;;;;;5071774;28;1173;-68
2020/12/02 04:17:37;;;;;;;;;;;21.30;57.70;;;;;;5071567;28;1221;-69
2020/12/02 04:20:03;;;;;;;;;;;21.30;58.30;;;;;;5064582;28;1284;-68
2020/12/02 04:22:28;;;;;;;;;;;21.40;57.60;;;;;;5040105;28;1965;-69
2020/12/02 04:24:54;;;;;;;;;;;21.50;57.40;;;;;;5033330;28;1348;-69
2020/12/02 04:27:19;;;;;;;;;;;21.60;57.20;;;;;;5051422;28;1211;-69
2020/12/02 04:29:45;;;;;;;;;;;21.70;57.00;;;;;;5051256;28;1288;-69
2020/12/02 04:32:10;;;;;;;;;;;21.70;56.70;;;;;;5051512;28;1268;-69
2020/12/02 04:34:36;;;;;;;;;;;21.80;56.50;;;;;;5049795;28;1407;-69
2020/12/02 04:37:01;;;;;;;;;;;21.90;56.40;;;;;;5056020;28;1179;-69
2020/12/02 04:39:27;;;;;;;;;;;22.10;56.20;;;;;;5053202;28;1304;-69
2020/12/02 04:41:52;;;;;;;;;;;22.20;56.00;;;;;;5046263;28;1276;-69
2020/12/02 04:44:18;;;;;;;;;;;22.20;55.80;;;;;;5053982;28;1906;-69
2020/12/02 04:46:44;;;;;;;;;;;22.30;55.70;;;;;;5059265;28;1290;-68
2020/12/02 04:49:18;;;;;;;;;;;22.30;55.50;;;;;;5075228;28;1174;-68
2020/12/02 04:51:44;;;;;;;;;;;22.40;55.40;;;;;;5062257;28;1196;-69
2020/12/02 04:54:09;;;;;;;;;;;22.50;55.20;;;;;;5049789;28;1112;-69
2020/12/02 04:56:35;;;;;;;;;;;22.50;55.10;;;;;;5055949;28;1195;-69
2020/12/02 04:59:01;;;;;;;;;;;22.60;55.10;;;;;;5072103;28;1118;-69
2020/12/02 05:01:28;;;;;;;;;;;22.60;54.90;;;;;;5055465;28;1349;-69
2020/12/02 05:03:57;;;;;;;;;;;22.60;54.80;;;;;;5071836;28;1902;-67
2020/12/02 05:06:28;;;;;;;;;;;22.70;54.80;;;;;;5055288;28;1080;-67
2020/12/02 05:09:07;;;;;;;;;;;22.70;54.70;;;;;;5055343;28;1075;-67
2020/12/02 05:11:32;;;;;;;;;;;22.70;54.60;;;;;;5070831;28;1244;-67
2020/12/02 05:14:04;;;;;;;;;;;22.70;54.60;;;;;;5071127;28;1106;-68
2020/12/02 05:16:30;;;;;;;;;;;22.80;54.60;;;;;;5070496;28;1126;-67
2020/12/02 05:19:15;;;;;;;;;;;22.80;54.50;;;;;;5070708;28;1141;-67
2020/12/02 05:21:43;;;;;;;;;;;22.80;54.40;;;;;;5050592;28;1228;-68
2020/12/02 05:24:08;;;;;;;;;;;22.80;54.40;;;;;;5050616;28;2048;-68
2020/12/02 05:26:37;;;;;;;;;;;22.90;54.40;;;;;;5059935;28;1076;-68
2020/12/02 05:29:08;;;;;;;;;;;22.90;54.40;;;;;;5064360;28;1031;-67
2020/12/02 05:31:33;;;;;;;;;;;22.90;54.40;;;;;;5070310;28;1386;-67
2020/12/02 05:34:15;;;;;;;;;;;22.90;54.30;;;;;;5055348;28;1126;-67
2020/12/02 05:36:43;;;;;;;;;;;22.90;54.30;;;;;;5069977;28;1091;-68
2020/12/02 05:39:13;;;;;;;;;;;22.90;54.30;;;;;;5070493;28;1123;-68
2020/12/02 05:41:38;;;;;;;;;;;22.90;54.30;;;;;;5054620;28;1336;-67
2020/12/02 05:44:19;;;;;;;;;;;22.90;54.30;;;;;;5070784;28;1894;-67
2020/12/02 05:46:46;;;;;;;;;;;22.90;54.40;;;;;;5068945;28;1161;-68
2020/12/02 05:49:12;;;;;;;;;;;22.90;54.40;;;;;;5070141;28;1249;-68
2020/12/02 05:51:38;;;;;;;;;;;22.90;54.40;;;;;;5046746;28;1282;-68
2020/12/02 05:54:05;;;;;;;;;;;22.90;55.00;;;;;;5026873;28;1213;-67
2020/12/02 05:56:31;;;;;;;;;;;22.90;54.50;;;;;;5041541;28;1146;-67
2020/12/02 05:59:01;;;;;;;;;;;22.80;54.40;;;;;;5054603;28;1111;-68
2020/12/02 06:01:27;;;;;;;;;;;22.80;54.50;;;;;;5052955;28;1193;-68
2020/12/02 06:03:54;;;;;;;;;;;22.80;54.50;;;;;;5070192;28;1910;-68
2020/12/02 06:06:19;;;;;;;;;;;22.80;54.60;;;;;;5062860;28;1110;-68
2020/12/02 06:08:46;;;;;;;;;;;22.80;54.60;;;;;;5059894;28;1301;-68
2020/12/02 06:11:17;;;;;;;;;;;22.80;54.70;;;;;;5074317;28;1205;-68
2020/12/02 06:13:49;;;;;;;;;;;22.70;54.70;;;;;;5074449;28;1083;-68
2020/12/02 06:16:15;;;;;;;;;;;22.70;54.70;;;;;;5074020;28;1122;-68
2020/12/02 06:18:41;;;;;;;;;;;22.70;54.80;;;;;;5073951;28;1138;-67
2020/12/02 06:21:07;;;;;;;;;;;22.70;54.90;;;;;;5057030;28;1291;-67
2020/12/02 06:23:39;;;;;;;;;;;22.70;54.90;;;;;;5069364;28;1902;-68
2020/12/02 06:26:05;;;;;;;;;;;22.60;54.90;;;;;;5069560;28;1090;-67
2020/12/02 06:28:30;;;;;;;;;;;22.60;55.00;;;;;;5053908;28;1095;-67
2020/12/02 06:31:14;;;;;;;;;;;22.60;55.00;;;;;;5053907;28;1311;-68
2020/12/02 06:33:40;;;;;;;;;;;22.60;55.00;;;;;;5053580;28;1158;-67
2020/12/02 06:36:16;;;;;;;;;;;22.60;55.10;;;;;;5069581;28;1123;-67
2020/12/02 06:38:42;;;;;;;;;;;22.60;55.10;;;;;;5053389;28;1079;-67
2020/12/02 06:41:16;;;;;;;;;;;22.60;55.20;;;;;;5069459;28;1280;-68
2020/12/02 06:43:47;;;;;;;;;;;22.50;55.20;;;;;;5047954;28;1910;-68
2020/12/02 06:46:12;;;;;;;;;;;22.50;55.20;;;;;;5042091;28;1799;-67
2020/12/02 06:48:39;;;;;;;;;;;22.50;55.30;;;;;;5036635;28;1053;-68
2020/12/02 06:51:12;;;;;;;;;;;22.50;55.40;;;;;;5059339;28;1230;-68
2020/12/02 06:53:37;;;;;;;;;;;22.50;55.40;;;;;;5042323;28;1044;-68
2020/12/02 06:56:03;;;;;;;;;;;22.40;55.40;;;;;;5067173;28;1141;-67
2020/12/02 06:58:28;;;;;;;;;;;22.40;55.40;;;;;;5052353;28;1091;-67
2020/12/02 07:00:56;;;;;;;;;;;22.40;55.40;;;;;;5067184;28;1378;-68
2020/12/02 07:03:23;;;;;;;;;;;22.40;55.50;;;;;;5067727;28;1976;-67
2020/12/02 07:05:50;;;;;;;;;;;22.40;55.60;;;;;;5052139;28;1147;-67
2020/12/02 07:08:17;;;;;;;;;;;22.30;55.50;;;;;;5050920;28;1166;-68
2020/12/02 07:10:51;;;;;;;;;;;22.30;55.60;;;;;;5067958;28;1366;-68
2020/12/02 07:13:17;;;;;;;;;;;22.30;55.60;;;;;;5054490;28;1041;-67
2020/12/02 07:15:42;;;;;;;;;;;22.30;55.40;;;;;;5046866;28;1091;-68
2020/12/02 07:18:09;;;;;;;;;;;22.30;55.60;;;;;;5047217;28;883;-68
2020/12/02 07:20:35;;;;;;;;;;;22.20;55.60;;;;;;5052113;28;1307;-67
2020/12/02 07:23:00;;;;;;;;;;;22.30;55.70;;;;;;5067588;28;1961;-66
2020/12/02 07:25:26;;;;;;;;;;;22.20;55.70;;;;;;5066767;28;1134;-66
2020/12/02 07:27:52;;;;;;;;;;;22.20;55.70;;;;;;5050370;28;1400;-66
2020/12/02 07:30:27;;;;;;;;;;;22.20;55.80;;;;;;5050490;28;1335;-66
2020/12/02 07:32:52;;;;;;;;;;;22.20;55.80;;;;;;5049500;28;1325;-68
2020/12/02 07:35:18;;;;;;;;;;;22.20;55.90;;;;;;5050198;28;1028;-68
2020/12/02 07:37:44;;;;;;;;;;;22.20;55.90;;;;;;5050571;28;1130;-68
2020/12/02 07:40:26;;;;;;;;;;;22.20;55.90;;;;;;5050909;28;1696;-68
2020/12/02 07:42:51;;;;;;;;;;;22.10;55.90;;;;;;5065928;28;1921;-67
2020/12/02 07:45:17;;;;;;;;;;;22.10;56.00;;;;;;5031169;28;2013;-67
2020/12/02 07:47:43;;;;;;;;;;;22.10;56.00;;;;;;5060283;28;1100;-67
2020/12/02 07:50:25;;;;;;;;;;;22.10;56.00;;;;;;5066930;28;1300;-67
2020/12/02 07:52:52;;;;;;;;;;;22.10;56.10;;;;;;5049219;28;1230;-68
2020/12/02 07:55:19;;;;;;;;;;;22.10;56.10;;;;;;5066036;28;1106;-67
2020/12/02 07:57:45;;;;;;;;;;;22.10;56.20;;;;;;5066266;28;1496;-67
2020/12/02 08:00:16;;;;;;;;;;;22.00;56.10;;;;;;5065308;28;1343;-67
2020/12/02 08:02:43;;;;;;;;;;;22.00;56.20;;;;;;5044342;28;1958;-67
2020/12/02 08:05:22;;;;;;;;;;;22.00;56.20;;;;;;5049739;28;910;-67
2020/12/02 08:08:00;;;;;;;;;;;22.00;56.20;;;;;;5048666;28;1218;-67
2020/12/02 08:10:27;;;;;;;;;;;22.00;56.30;;;;;;5048489;28;1325;-67
2020/12/02 08:12:52;;;;;;;;;;;22.00;56.30;;;;;;5066340;28;1082;-67
2020/12/02 08:15:18;;;;;;;;;;;21.90;56.30;;;;;;5066495;28;3153;-67
2020/12/02 08:17:58;;;;;;;;;;;22.00;56.40;;;;;;5050910;28;1179;-67
2020/12/02 08:20:30;;;;;;;;;;;21.90;56.40;;;;;;5067070;28;1398;-67
2020/12/02 08:22:56;;;;;;;;;;;21.90;56.40;;;;;;5067483;28;1963;-67
2020/12/02 08:25:26;;;;;;;;;;;21.90;56.40;;;;;;5067563;28;1362;-67
2020/12/02 08:27:53;;;;;;;;;;;21.90;56.30;;;;;;5067464;28;1071;-66
2020/12/02 08:30:20;;;;;;;;;;;22.00;56.30;;;;;;5049834;28;1359;-67
2020/12/02 08:33:07;;;;;;;;;;;22.00;56.30;;;;;;5047308;28;1088;-67
2020/12/02 08:35:34;;;;;;;;;;;22.00;56.30;;;;;;5054307;28;1091;-67
2020/12/02 08:38:00;;;;;;;;;;;22.10;56.30;;;;;;5051710;28;1646;-67
2020/12/02 08:40:31;;;;;;;;;;;22.10;56.10;;;;;;5066905;28;1354;-67
2020/12/02 08:43:15;;;;;;;;;;;22.10;56.10;;;;;;5067613;28;1969;-67
2020/12/02 08:45:50;;;;;;;;;;;22.20;56.00;;;;;;5051632;28;1079;-67
2020/12/02 08:48:15;;;;;;;;;;;22.20;55.90;;;;;;5067079;28;1209;-67
2020/12/02 08:50:42;;;;;;;;;;;22.20;55.80;;;;;;5052117;28;1335;-67
2020/12/02 08:53:07;;;;;;;;;;;22.20;55.80;;;;;;5048702;28;1240;-67
2020/12/02 08:55:33;;;;;;;;;;;22.30;55.80;;;;;;5046877;28;1119;-67
2020/12/02 08:57:58;;;;;;;;;;;22.30;55.70;;;;;;5069241;28;1194;-67
2020/12/02 09:00:24;;;;;;;;;;;22.30;55.60;;;;;;5071553;28;1385;-67
2020/12/02 09:02:50;;;;;;;;;;;22.30;55.60;;;;;;5071936;28;1909;-67
2020/12/02 09:05:15;;;;;;;;;;;22.30;55.60;;;;;;5071664;28;1074;-67
2020/12/02 09:07:41;;;;;;;;;;;22.30;55.60;;;;;;5070688;28;1161;-67
2020/12/02 09:10:06;;;;;;;;;;;22.30;55.60;;;;;;5071765;28;1311;-67
2020/12/02 09:12:32;;;;;;;;;;;22.30;55.60;;;;;;5071751;28;1106;-67
2020/12/02 09:14:57;;;;;;;;;;;22.30;55.60;;;;;;5072058;28;1173;-67
2020/12/02 09:17:23;;;;;;;;;;;22.30;55.60;;;;;;5071136;28;1114;-67
2020/12/02 09:19:50;;;;;;;;;;;22.30;55.60;;;;;;5066752;28;1201;-68
2020/12/02 09:22:16;;;;;;;;;;;22.30;55.60;;;;;;5053744;28;1425;-67
2020/12/02 09:24:43;;;;;;;;;;;22.20;55.60;;;;;;5055229;28;1894;-67
2020/12/02 09:27:09;;;;;;;;;;;22.20;55.60;;;;;;5070096;28;1162;-67
2020/12/02 09:29:34;;;;;;;;;;;22.30;55.70;;;;;;5058758;28;1177;-67
2020/12/02 09:32:00;;;;;;;;;;;22.20;55.60;;;;;;5071714;28;1366;-67
2020/12/02 09:34:25;;;;;;;;;;;22.20;55.70;;;;;;5073606;28;1126;-67
2020/12/02 09:36:51;;;;;;;;;;;22.20;55.70;;;;;;5050652;28;1872;-67
2020/12/02 09:39:16;;;;;;;;;;;22.20;55.70;;;;;;5053519;28;1063;-67
2020/12/02 09:41:45;;;;;;;;;;;22.20;55.80;;;;;;5053620;28;1268;-67
2020/12/02 09:44:14;;;;;;;;;;;22.20;55.80;;;;;;5052866;28;1969;-67
2020/12/02 09:46:42;;;;;;;;;;;22.20;55.90;;;;;;5053420;28;1052;-68
2020/12/02 09:49:08;;;;;;;;;;;22.10;55.80;;;;;;5068845;28;1118;-67
2020/12/02 09:51:33;;;;;;;;;;;22.10;55.90;;;;;;5062752;28;1315;-67
2020/12/02 09:53:59;;;;;;;;;;;22.10;55.90;;;;;;5046086;28;1096;-67
2020/12/02 09:56:27;;;;;;;;;;;22.10;56.00;;;;;;5053862;28;1059;-67
2020/12/02 09:58:55;;;;;;;;;;;22.10;55.90;;;;;;5068753;28;1063;-67
2020/12/02 10:01:44;;;;;;;;;;;22.10;56.00;;;;;;5053560;28;1323;-68
2020/12/02 10:04:12;;;;;;;;;;;22.10;56.00;;;;;;5055324;28;1898;-67
2020/12/02 10:06:50;;;;;;;;;;;22.10;56.00;;;;;;5053231;28;1040;-67
2020/12/02 10:09:15;;;;;;;;;;;22.10;55.90;;;;;;5068541;28;1086;-68
2020/12/02 10:11:41;;;;;;;;;;;22.10;55.80;;;;;;5053061;28;1283;-67
2020/12/02 10:14:21;;;;;;;;;;;22.20;55.80;;;;;;5053716;28;1130;-67
2020/12/02 10:17:07;;;;;;;;;;;22.20;55.80;;;;;;5068582;28;1078;-67
2020/12/02 10:19:38;;;;;;;;;;;22.30;55.70;;;;;;5051759;28;1237;-67
2020/12/02 10:22:22;;;;;;;;;;;22.30;55.70;;;;;;5051774;28;1404;-68
2020/12/02 10:24:50;;;;;;;;;;;22.30;55.60;;;;;;5053481;28;1890;-67
2020/12/02 10:27:34;;;;;;;;;;;22.30;55.50;;;;;;5052186;28;1024;-67
2020/12/02 10:30:06;;;;;;;;;;;22.40;55.40;;;;;;5052998;28;1141;-67
2020/12/02 10:32:50;;;;;;;;;;;22.40;55.40;;;;;;5053094;28;1554;-67
2020/12/02 10:35:15;;;;;;;;;;;22.40;55.30;;;;;;5045375;28;2147;-66
2020/12/02 10:37:41;;;;;;;;;;;22.40;55.30;;;;;;5039958;28;976;-66
2020/12/02 10:40:07;;;;;;;;;;;22.40;55.30;;;;;;5050033;28;1280;-66
2020/12/02 10:42:39;;;;;;;;;;;22.40;55.30;;;;;;5067964;28;1959;-67
2020/12/02 10:45:14;;;;;;;;;;;22.40;55.30;;;;;;5052577;28;1103;-67
2020/12/02 10:47:48;;;;;;;;;;;22.40;55.30;;;;;;5052519;28;1138;-66
2020/12/02 10:50:14;;;;;;;;;;;22.40;55.30;;;;;;5051874;28;1277;-67
2020/12/02 10:52:39;;;;;;;;;;;22.40;55.30;;;;;;5056163;28;1236;-67
2020/12/02 10:55:05;;;;;;;;;;;22.40;55.30;;;;;;5072605;28;1070;-68
2020/12/02 10:57:31;;;;;;;;;;;22.40;55.30;;;;;;5070297;28;1191;-67
2020/12/02 10:59:57;;;;;;;;;;;22.40;55.30;;;;;;5054854;28;1270;-66
2020/12/02 11:02:23;;;;;;;;;;;22.40;55.00;;;;;;5073012;28;1205;-68
2020/12/02 11:04:49;;;;;;;;;;;22.40;55.20;;;;;;5053840;28;1906;-68
2020/12/02 11:07:14;;;;;;;;;;;22.40;55.20;;;;;;5049888;28;1956;-68
2020/12/02 11:09:59;;;;;;;;;;;22.30;55.20;;;;;;5051718;28;1131;-67
2020/12/02 11:12:43;;;;;;;;;;;22.40;55.30;;;;;;5067140;28;1275;-67
2020/12/02 11:15:22;;;;;;;;;;;22.30;55.30;;;;;;5072106;28;1066;-67
2020/12/02 11:17:56;;;;;;;;;;;22.30;55.30;;;;;;5059560;28;1044;-67
2020/12/02 11:20:32;;;;;;;;;;;22.30;55.20;;;;;;5066698;28;1378;-67
2020/12/02 11:23:15;;;;;;;;;;;22.30;55.20;;;;;;5067686;28;1890;-67
2020/12/02 11:25:41;;;;;;;;;;;22.40;55.20;;;;;;5067080;28;1105;-66
2020/12/02 11:28:07;;;;;;;;;;;22.40;55.10;;;;;;5052004;28;1048;-67
2020/12/02 11:30:37;;;;;;;;;;;22.40;55.00;;;;;;5050751;28;1283;-67
2020/12/02 11:33:35;;;;;;;;;;;22.40;55.00;;;;;;5067525;28;1158;-67
2020/12/02 11:36:01;;;;;;;;;;;22.40;54.90;;;;;;5049798;28;1150;-66
2020/12/02 11:38:27;;;;;;;;;;;22.50;54.80;;;;;;5049205;28;1138;-67
2020/12/02 11:41:13;;;;;;;;;;;22.50;54.70;;;;;;5067434;28;1224;-67
2020/12/02 11:43:42;;;;;;;;;;;22.50;51.70;;;;;;5066845;28;1902;-67
2020/12/02 11:46:09;;;;;;;;;;;22.40;47.20;;;;;;5066092;28;1142;-67
2020/12/02 11:48:37;;;;;;;;;;;22.30;44.90;;;;;;5065553;28;1138;-67
2020/12/02 11:51:21;;;;;;;;;;;22.20;42.50;;;;;;5050235;28;1296;-67
2020/12/02 11:54:00;;;;;;;;;;;22.10;40.70;;;;;;5051324;28;1060;-66
2020/12/02 11:56:30;;;;;;;;;;;22.00;40.90;;;;;;5066543;28;1043;-67
2020/12/02 11:58:58;;;;;;;;;;;21.90;40.50;;;;;;5066001;28;1071;-66
2020/12/02 12:01:46;;;;;;;;;;;21.80;39.30;;;;;;5050793;28;1310;-65
2020/12/02 12:04:32;;;;;;;;;;;21.80;38.30;;;;;;5045719;28;1902;-66
2020/12/02 12:07:13;;;;;;;;;;;21.70;37.50;;;;;;5046957;28;1275;-66
2020/12/02 12:09:53;;;;;;;;;;;21.60;38.00;;;;;;5038983;28;1069;-66
2020/12/02 12:12:22;;;;;;;;;;;21.60;37.40;;;;;;5066510;28;1230;-66
2020/12/02 12:15:00;;;;;;;;;;;21.50;34.80;;;;;;5067044;28;1183;-66
2020/12/02 12:17:28;;;;;;;;;;;21.40;35.50;;;;;;5065785;28;1055;-66
2020/12/02 12:20:05;;;;;;;;;;;21.30;36.30;;;;;;5066060;28;1067;-66
2020/12/02 12:22:38;;;;;;;;;;;21.30;37.10;;;;;;5037470;28;1488;-66
2020/12/02 12:25:06;;;;;;;;;;;21.20;36.30;;;;;;5066696;28;960;-66
2020/12/02 12:27:32;;;;;;;;;;;21.10;36.00;;;;;;5065786;28;1162;-66
2020/12/02 12:29:58;;;;;;;;;;;21.10;37.00;;;;;;5050864;28;957;-66
2020/12/02 12:32:25;;;;;;;;;;;21.10;37.70;;;;;;5051048;28;1286;-65
2020/12/02 12:34:53;;;;;;;;;;;21.10;38.60;;;;;;5065757;28;1086;-66
2020/12/02 12:37:23;;;;;;;;;;;21.10;39.30;;;;;;5065685;28;1110;-65
2020/12/02 12:39:48;;;;;;;;;;;21.20;39.70;;;;;;5066110;28;1070;-65
2020/12/02 12:42:14;;;;;;;;;;;21.20;40.20;;;;;;5066268;28;1382;-65
2020/12/02 12:44:40;;;;;;;;;;;21.20;40.70;;;;;;5050539;28;1894;-65
2020/12/02 12:47:24;;;;;;;;;;;21.20;41.10;;;;;;5049034;28;1296;-65
2020/12/02 12:49:50;;;;;;;;;;;21.30;41.60;;;;;;5050787;28;1091;-66
2020/12/02 12:52:17;;;;;;;;;;;21.30;41.90;;;;;;5050282;28;1818;-66
2020/12/02 12:54:43;;;;;;;;;;;21.30;42.40;;;;;;5028456;28;1052;-66
2020/12/02 12:57:12;;;;;;;;;;;21.30;42.80;;;;;;5047563;28;1051;-66
2020/12/02 12:59:37;;;;;;;;;;;21.30;43.10;;;;;;5033306;28;1284;-67
2020/12/02 13:02:03;;;;;;;;;;;21.30;43.40;;;;;;5056766;28;1316;-66
2020/12/02 13:04:28;;;;;;;;;;;21.30;43.60;;;;;;5072883;28;1898;-66
2020/12/02 13:07:12;;;;;;;;;;;21.30;44.00;;;;;;5074712;28;1067;-66
2020/12/02 13:09:49;;;;;;;;;;;21.30;44.20;;;;;;5074213;28;1046;-66
2020/12/02 13:12:23;;;;;;;;;;;21.30;44.50;;;;;;5074507;28;1311;-66
2020/12/02 13:14:56;;;;;;;;;;;21.30;44.80;;;;;;5073477;28;1078;-66
2020/12/02 13:17:37;;;;;;;;;;;21.30;45.10;;;;;;5074191;28;1130;-66
2020/12/02 13:20:02;;;;;;;;;;;21.30;45.50;;;;;;5065552;28;1018;-66
2020/12/02 13:22:31;;;;;;;;;;;21.30;45.50;;;;;;5054196;28;1260;-66
2020/12/02 13:24:58;;;;;;;;;;;21.30;45.70;;;;;;5052990;28;1895;-66
2020/12/02 13:27:29;;;;;;;;;;;21.30;45.90;;;;;;5042409;28;1170;-66
2020/12/02 13:30:02;;;;;;;;;;;21.30;46.10;;;;;;5053048;28;1182;-66
2020/12/02 13:32:39;;;;;;;;;;;21.30;46.30;;;;;;5068074;28;1292;-66
2020/12/02 13:35:05;;;;;;;;;;;21.30;46.50;;;;;;5054060;28;1145;-66
2020/12/02 13:37:30;;;;;;;;;;;21.30;46.70;;;;;;5072543;28;1133;-66
2020/12/02 13:39:56;;;;;;;;;;;21.30;46.80;;;;;;5071869;28;1094;-66
2020/12/02 13:42:21;;;;;;;;;;;21.30;47.10;;;;;;5072674;28;1141;-66
2020/12/02 13:44:58;;;;;;;;;;;21.30;47.20;;;;;;5072835;28;1906;-66
2020/12/02 13:47:23;;;;;;;;;;;21.20;47.30;;;;;;5072613;28;1058;-66
2020/12/02 13:49:49;;;;;;;;;;;21.20;47.30;;;;;;5054183;28;1175;-66
2020/12/02 13:52:34;;;;;;;;;;;21.20;47.50;;;;;;5048921;28;1247;-66
2020/12/02 13:55:15;;;;;;;;;;;21.20;47.60;;;;;;5040731;28;1119;-66
2020/12/02 13:57:59;;;;;;;;;;;21.20;47.80;;;;;;5051581;28;1032;-66
2020/12/02 14:00:25;;;;;;;;;;;21.20;47.90;;;;;;5053250;28;1225;-66
2020/12/02 14:02:59;;;;;;;;;;;21.20;48.10;;;;;;5052066;28;1957;-66
2020/12/02 14:05:47;;;;;;;;;;;21.20;48.20;;;;;;5052552;28;995;-66
2020/12/02 14:08:13;;;;;;;;;;;21.20;48.20;;;;;;5066346;28;1115;-66
2020/12/02 14:10:38;;;;;;;;;;;21.20;48.40;;;;;;5068073;28;1235;-66
2020/12/02 14:13:09;;;;;;;;;;;21.20;48.60;;;;;;5052609;28;1126;-66
2020/12/02 14:15:34;;;;;;;;;;;21.20;48.60;;;;;;5052422;28;1127;-66
2020/12/02 14:18:00;;;;;;;;;;;21.20;48.60;;;;;;5068314;28;1138;-66
2020/12/02 14:20:25;;;;;;;;;;;21.20;48.60;;;;;;5068016;28;1288;-66
2020/12/02 14:22:54;;;;;;;;;;;21.20;48.70;;;;;;5041138;28;2012;-66
2020/12/02 14:25:20;;;;;;;;;;;21.10;48.70;;;;;;5048637;28;1177;-65
2020/12/02 14:27:49;;;;;;;;;;;21.20;48.90;;;;;;5049748;28;996;-66
2020/12/02 14:30:19;;;;;;;;;;;21.10;48.80;;;;;;5056195;28;1379;-66
2020/12/02 14:32:45;;;;;;;;;;;21.10;48.90;;;;;;5048344;28;1111;-66
2020/12/02 14:35:10;;;;;;;;;;;21.10;49.00;;;;;;5067901;28;1040;-66
2020/12/02 14:37:36;;;;;;;;;;;21.10;49.00;;;;;;5071128;28;1190;-66
2020/12/02 14:40:02;;;;;;;;;;;21.10;49.20;;;;;;5072739;28;1083;-65
2020/12/02 14:42:27;;;;;;;;;;;21.10;49.20;;;;;;5072955;28;1331;-65